Fly Creek, New York
Current Conditions -  °F | °C
As of 7:15 AM on Thursday 18 Dec 2014 (Local Time) from KNY0 Reporting Station
Overcast Overcast  
Wind Chill: 16°   Ceiling: 1200
Heat Index: 29°   Visibility: 10mi
Dew Point: 25°   Wind: 22mph
Humidity: 85%   Direction: 280°W
Pressure: 29.87"   Gusts: 30mph
Location:  42.72°N, 74.98°W
Report Text: KNY0 181215Z AUTO 28019G26KT 10SM OVC012 M01/M04 A2987 RMK AO2 T10151037
Loading
Personal Weather Stations






























Interactive Weather Map New forecast layout! Learn more

10-Day Weather Forecast

Advertisements
Track Severe Weather on mobile